sensor_id;sensor_type;location;lat;lon;timestamp;P1;durP1;ratioP1;P2;durP2;ratioP2
9106;SDS011;4589;48.690;8.952;2023-05-14T00:01:40;12.40;;;10.83;;
9106;SDS011;4589;48.690;8.952;2023-05-14T00:04:06;11.83;;;10.57;;
9106;SDS011;4589;48.690;8.952;2023-05-14T00:06:32;14.97;;;11.87;;
9106;SDS011;4589;48.690;8.952;2023-05-14T00:08:58;11.77;;;10.27;;
9106;SDS011;4589;48.690;8.952;2023-05-14T00:11:24;12.63;;;10.90;;
9106;SDS011;4589;48.690;8.952;2023-05-14T00:13:50;14.10;;;11.13;;
9106;SDS011;4589;48.690;8.952;2023-05-14T00:16:16;13.17;;;11.77;;
9106;SDS011;4589;48.690;8.952;2023-05-14T00:18:41;16.10;;;11.70;;
9106;SDS011;4589;48.690;8.952;2023-05-14T00:21:07;13.83;;;11.67;;
9106;SDS011;4589;48.690;8.952;2023-05-14T00:23:33;13.00;;;11.70;;
9106;SDS011;4589;48.690;8.952;2023-05-14T00:25:59;12.70;;;11.03;;
9106;SDS011;4589;48.690;8.952;2023-05-14T00:28:25;13.13;;;10.83;;
9106;SDS011;4589;48.690;8.952;2023-05-14T00:30:51;14.93;;;11.10;;
9106;SDS011;4589;48.690;8.952;2023-05-14T00:33:17;11.83;;;10.20;;
9106;SDS011;4589;48.690;8.952;2023-05-14T00:35:43;14.23;;;11.47;;
9106;SDS011;4589;48.690;8.952;2023-05-14T00:38:09;12.27;;;10.03;;
9106;SDS011;4589;48.690;8.952;2023-05-14T00:40:40;11.53;;;10.33;;
9106;SDS011;4589;48.690;8.952;2023-05-14T00:43:09;12.53;;;10.77;;
9106;SDS011;4589;48.690;8.952;2023-05-14T00:45:35;13.80;;;11.03;;
9106;SDS011;4589;48.690;8.952;2023-05-14T00:48:01;12.70;;;9.80;;
9106;SDS011;4589;48.690;8.952;2023-05-14T00:50:27;16.33;;;11.67;;
9106;SDS011;4589;48.690;8.952;2023-05-14T00:52:53;11.60;;;10.40;;
9106;SDS011;4589;48.690;8.952;2023-05-14T00:55:19;13.33;;;11.40;;
9106;SDS011;4589;48.690;8.952;2023-05-14T00:57:46;14.43;;;11.53;;
9106;SDS011;4589;48.690;8.952;2023-05-14T01:00:12;12.53;;;11.23;;
9106;SDS011;4589;48.690;8.952;2023-05-14T01:02:37;12.73;;;9.63;;
9106;SDS011;4589;48.690;8.952;2023-05-14T01:05:03;13.87;;;11.40;;
9106;SDS011;4589;48.690;8.952;2023-05-14T01:07:51;12.67;;;10.87;;
9106;SDS011;4589;48.690;8.952;2023-05-14T01:10:28;13.70;;;11.17;;
9106;SDS011;4589;48.690;8.952;2023-05-14T01:13:08;15.67;;;11.97;;
9106;SDS011;4589;48.690;8.952;2023-05-14T01:15:35;17.13;;;11.80;;
9106;SDS011;4589;48.690;8.952;2023-05-14T01:18:04;15.07;;;11.67;;
9106;SDS011;4589;48.690;8.952;2023-05-14T01:20:33;11.97;;;10.70;;
9106;SDS011;4589;48.690;8.952;2023-05-14T01:22:59;12.77;;;10.87;;
9106;SDS011;4589;48.690;8.952;2023-05-14T01:25:25;12.83;;;10.60;;
9106;SDS011;4589;48.690;8.952;2023-05-14T01:27:52;12.90;;;10.90;;
9106;SDS011;4589;48.690;8.952;2023-05-14T01:30:40;15.00;;;11.30;;
9106;SDS011;4589;48.690;8.952;2023-05-14T01:33:21;13.03;;;11.20;;
9106;SDS011;4589;48.690;8.952;2023-05-14T01:35:51;13.20;;;10.90;;
9106;SDS011;4589;48.690;8.952;2023-05-14T01:38:18;15.77;;;12.77;;
9106;SDS011;4589;48.690;8.952;2023-05-14T01:40:45;12.23;;;10.37;;
9106;SDS011;4589;48.690;8.952;2023-05-14T01:43:12;13.43;;;11.60;;
9106;SDS011;4589;48.690;8.952;2023-05-14T01:45:38;17.40;;;12.97;;
9106;SDS011;4589;48.690;8.952;2023-05-14T01:48:04;14.27;;;12.40;;
9106;SDS011;4589;48.690;8.952;2023-05-14T01:50:30;16.20;;;10.90;;
9106;SDS011;4589;48.690;8.952;2023-05-14T01:52:56;14.90;;;11.97;;
9106;SDS011;4589;48.690;8.952;2023-05-14T01:55:22;15.23;;;12.13;;
9106;SDS011;4589;48.690;8.952;2023-05-14T01:57:51;14.90;;;11.97;;
9106;SDS011;4589;48.690;8.952;2023-05-14T02:00:17;15.30;;;11.87;;
9106;SDS011;4589;48.690;8.952;2023-05-14T02:02:43;14.67;;;12.03;;
9106;SDS011;4589;48.690;8.952;2023-05-14T02:05:09;17.30;;;11.90;;
9106;SDS011;4589;48.690;8.952;2023-05-14T02:07:36;14.70;;;12.30;;
9106;SDS011;4589;48.690;8.952;2023-05-14T02:10:01;13.10;;;11.30;;
9106;SDS011;4589;48.690;8.952;2023-05-14T02:12:27;15.13;;;12.00;;
9106;SDS011;4589;48.690;8.952;2023-05-14T02:14:53;15.77;;;12.00;;
9106;SDS011;4589;48.690;8.952;2023-05-14T02:17:18;14.80;;;11.67;;
9106;SDS011;4589;48.690;8.952;2023-05-14T02:19:44;16.47;;;12.57;;
9106;SDS011;4589;48.690;8.952;2023-05-14T02:22:10;15.27;;;12.60;;
9106;SDS011;4589;48.690;8.952;2023-05-14T02:24:36;13.17;;;11.83;;
9106;SDS011;4589;48.690;8.952;2023-05-14T02:27:02;14.57;;;10.73;;
9106;SDS011;4589;48.690;8.952;2023-05-14T02:29:28;13.17;;;11.30;;
9106;SDS011;4589;48.690;8.952;2023-05-14T02:31:53;15.87;;;13.77;;
9106;SDS011;4589;48.690;8.952;2023-05-14T02:34:19;12.67;;;11.23;;
9106;SDS011;4589;48.690;8.952;2023-05-14T02:36:45;13.00;;;10.90;;
9106;SDS011;4589;48.690;8.952;2023-05-14T02:39:11;13.80;;;12.13;;
9106;SDS011;4589;48.690;8.952;2023-05-14T02:41:37;13.73;;;11.93;;
9106;SDS011;4589;48.690;8.952;2023-05-14T02:44:02;13.23;;;10.97;;
9106;SDS011;4589;48.690;8.952;2023-05-14T02:46:29;13.40;;;12.00;;
9106;SDS011;4589;48.690;8.952;2023-05-14T02:48:55;16.37;;;12.80;;
9106;SDS011;4589;48.690;8.952;2023-05-14T02:51:21;16.50;;;11.37;;
9106;SDS011;4589;48.690;8.952;2023-05-14T02:53:47;20.30;;;12.07;;
9106;SDS011;4589;48.690;8.952;2023-05-14T02:56:13;16.47;;;11.90;;
9106;SDS011;4589;48.690;8.952;2023-05-14T02:58:38;15.33;;;12.73;;
9106;SDS011;4589;48.690;8.952;2023-05-14T03:01:04;19.47;;;12.77;;
9106;SDS011;4589;48.690;8.952;2023-05-14T03:03:30;15.20;;;12.50;;
9106;SDS011;4589;48.690;8.952;2023-05-14T03:05:55;15.93;;;13.10;;
9106;SDS011;4589;48.690;8.952;2023-05-14T03:08:21;17.17;;;13.90;;
9106;SDS011;4589;48.690;8.952;2023-05-14T03:10:47;17.87;;;14.00;;
9106;SDS011;4589;48.690;8.952;2023-05-14T03:13:13;17.93;;;13.00;;
9106;SDS011;4589;48.690;8.952;2023-05-14T03:15:43;15.63;;;13.13;;
9106;SDS011;4589;48.690;8.952;2023-05-14T03:18:10;16.20;;;13.60;;
9106;SDS011;4589;48.690;8.952;2023-05-14T03:20:36;18.87;;;13.70;;
9106;SDS011;4589;48.690;8.952;2023-05-14T03:23:02;16.20;;;13.80;;
9106;SDS011;4589;48.690;8.952;2023-05-14T03:25:28;14.13;;;11.73;;
9106;SDS011;4589;48.690;8.952;2023-05-14T03:27:54;20.67;;;13.17;;
9106;SDS011;4589;48.690;8.952;2023-05-14T03:30:19;17.60;;;14.10;;
9106;SDS011;4589;48.690;8.952;2023-05-14T03:32:45;15.87;;;13.03;;
9106;SDS011;4589;48.690;8.952;2023-05-14T03:35:11;16.70;;;12.30;;
9106;SDS011;4589;48.690;8.952;2023-05-14T03:37:36;16.00;;;13.10;;
9106;SDS011;4589;48.690;8.952;2023-05-14T03:40:02;15.87;;;12.27;;
9106;SDS011;4589;48.690;8.952;2023-05-14T03:42:28;18.80;;;14.80;;
9106;SDS011;4589;48.690;8.952;2023-05-14T03:44:54;19.90;;;15.20;;
9106;SDS011;4589;48.690;8.952;2023-05-14T03:47:19;20.93;;;15.33;;
9106;SDS011;4589;48.690;8.952;2023-05-14T03:49:45;21.37;;;15.93;;
9106;SDS011;4589;48.690;8.952;2023-05-14T03:52:10;16.43;;;12.73;;
9106;SDS011;4589;48.690;8.952;2023-05-14T03:54:36;18.40;;;14.90;;
9106;SDS011;4589;48.690;8.952;2023-05-14T03:57:02;19.80;;;15.30;;
9106;SDS011;4589;48.690;8.952;2023-05-14T03:59:28;19.27;;;14.90;;
9106;SDS011;4589;48.690;8.952;2023-05-14T04:01:54;18.77;;;13.90;;
9106;SDS011;4589;48.690;8.952;2023-05-14T04:04:20;18.80;;;13.97;;
9106;SDS011;4589;48.690;8.952;2023-05-14T04:06:46;16.03;;;13.33;;
9106;SDS011;4589;48.690;8.952;2023-05-14T04:09:12;16.63;;;13.80;;
9106;SDS011;4589;48.690;8.952;2023-05-14T04:11:38;17.00;;;14.30;;
9106;SDS011;4589;48.690;8.952;2023-05-14T04:14:03;18.23;;;13.80;;
9106;SDS011;4589;48.690;8.952;2023-05-14T04:16:29;20.10;;;14.60;;
9106;SDS011;4589;48.690;8.952;2023-05-14T04:18:55;17.40;;;13.77;;
9106;SDS011;4589;48.690;8.952;2023-05-14T04:21:21;17.67;;;13.60;;
9106;SDS011;4589;48.690;8.952;2023-05-14T04:23:46;15.37;;;12.13;;
9106;SDS011;4589;48.690;8.952;2023-05-14T04:26:12;17.00;;;14.10;;
9106;SDS011;4589;48.690;8.952;2023-05-14T04:28:38;18.60;;;14.50;;
9106;SDS011;4589;48.690;8.952;2023-05-14T04:31:03;15.77;;;12.50;;
9106;SDS011;4589;48.690;8.952;2023-05-14T04:33:29;20.93;;;15.70;;
9106;SDS011;4589;48.690;8.952;2023-05-14T04:35:55;20.90;;;14.97;;
9106;SDS011;4589;48.690;8.952;2023-05-14T04:38:21;21.80;;;13.97;;
9106;SDS011;4589;48.690;8.952;2023-05-14T04:40:47;18.00;;;13.10;;
9106;SDS011;4589;48.690;8.952;2023-05-14T04:43:12;18.10;;;13.17;;
9106;SDS011;4589;48.690;8.952;2023-05-14T04:45:38;23.20;;;13.20;;
9106;SDS011;4589;48.690;8.952;2023-05-14T04:48:04;16.50;;;13.50;;
9106;SDS011;4589;48.690;8.952;2023-05-14T04:50:31;15.27;;;12.40;;
9106;SDS011;4589;48.690;8.952;2023-05-14T04:52:57;17.00;;;14.00;;
9106;SDS011;4589;48.690;8.952;2023-05-14T04:55:23;15.40;;;12.10;;
9106;SDS011;4589;48.690;8.952;2023-05-14T04:57:49;18.00;;;14.20;;
9106;SDS011;4589;48.690;8.952;2023-05-14T05:00:15;17.50;;;13.30;;
9106;SDS011;4589;48.690;8.952;2023-05-14T05:02:41;17.70;;;13.93;;
9106;SDS011;4589;48.690;8.952;2023-05-14T05:05:07;17.50;;;13.67;;
9106;SDS011;4589;48.690;8.952;2023-05-14T05:07:33;14.73;;;12.17;;
9106;SDS011;4589;48.690;8.952;2023-05-14T05:09:59;20.07;;;13.07;;
9106;SDS011;4589;48.690;8.952;2023-05-14T05:12:25;16.37;;;13.20;;
9106;SDS011;4589;48.690;8.952;2023-05-14T05:14:53;15.97;;;13.13;;
9106;SDS011;4589;48.690;8.952;2023-05-14T05:17:19;16.13;;;13.07;;
9106;SDS011;4589;48.690;8.952;2023-05-14T05:19:45;17.53;;;13.43;;
9106;SDS011;4589;48.690;8.952;2023-05-14T05:22:12;13.70;;;11.53;;
9106;SDS011;4589;48.690;8.952;2023-05-14T05:24:37;13.80;;;11.40;;
9106;SDS011;4589;48.690;8.952;2023-05-14T05:27:03;15.47;;;12.07;;
9106;SDS011;4589;48.690;8.952;2023-05-14T05:29:29;17.90;;;12.63;;
9106;SDS011;4589;48.690;8.952;2023-05-14T05:31:56;16.67;;;13.43;;
9106;SDS011;4589;48.690;8.952;2023-05-14T05:34:21;15.23;;;11.90;;
9106;SDS011;4589;48.690;8.952;2023-05-14T05:36:47;14.43;;;11.93;;
9106;SDS011;4589;48.690;8.952;2023-05-14T05:39:13;16.60;;;12.17;;
9106;SDS011;4589;48.690;8.952;2023-05-14T05:41:39;15.30;;;11.80;;
9106;SDS011;4589;48.690;8.952;2023-05-14T05:44:05;18.13;;;13.00;;
9106;SDS011;4589;48.690;8.952;2023-05-14T05:46:31;17.73;;;12.53;;
9106;SDS011;4589;48.690;8.952;2023-05-14T05:48:57;18.90;;;11.90;;
9106;SDS011;4589;48.690;8.952;2023-05-14T05:51:22;13.50;;;11.03;;
9106;SDS011;4589;48.690;8.952;2023-05-14T05:53:48;16.90;;;11.10;;
9106;SDS011;4589;48.690;8.952;2023-05-14T05:56:13;16.43;;;12.23;;
9106;SDS011;4589;48.690;8.952;2023-05-14T05:58:39;14.17;;;11.60;;
9106;SDS011;4589;48.690;8.952;2023-05-14T06:01:05;14.77;;;11.80;;
9106;SDS011;4589;48.690;8.952;2023-05-14T06:03:30;16.97;;;12.27;;
9106;SDS011;4589;48.690;8.952;2023-05-14T06:05:56;12.63;;;10.67;;
9106;SDS011;4589;48.690;8.952;2023-05-14T06:08:22;11.40;;;9.50;;
9106;SDS011;4589;48.690;8.952;2023-05-14T06:10:47;16.27;;;11.00;;
9106;SDS011;4589;48.690;8.952;2023-05-14T06:13:13;14.73;;;10.47;;
9106;SDS011;4589;48.690;8.952;2023-05-14T06:15:38;15.00;;;10.23;;
9106;SDS011;4589;48.690;8.952;2023-05-14T06:18:04;14.03;;;10.33;;
9106;SDS011;4589;48.690;8.952;2023-05-14T06:20:30;13.93;;;10.53;;
9106;SDS011;4589;48.690;8.952;2023-05-14T06:22:57;10.53;;;9.17;;
9106;SDS011;4589;48.690;8.952;2023-05-14T06:25:22;12.43;;;10.33;;
9106;SDS011;4589;48.690;8.952;2023-05-14T06:27:48;12.47;;;10.67;;
9106;SDS011;4589;48.690;8.952;2023-05-14T06:30:13;14.87;;;11.47;;
9106;SDS011;4589;48.690;8.952;2023-05-14T06:32:39;16.53;;;11.87;;
9106;SDS011;4589;48.690;8.952;2023-05-14T06:35:05;13.13;;;11.13;;
9106;SDS011;4589;48.690;8.952;2023-05-14T06:37:31;14.43;;;11.07;;
9106;SDS011;4589;48.690;8.952;2023-05-14T06:39:57;14.47;;;11.67;;
9106;SDS011;4589;48.690;8.952;2023-05-14T06:42:23;15.00;;;11.80;;
9106;SDS011;4589;48.690;8.952;2023-05-14T06:44:48;20.70;;;12.43;;
9106;SDS011;4589;48.690;8.952;2023-05-14T06:47:14;14.83;;;11.80;;
9106;SDS011;4589;48.690;8.952;2023-05-14T06:49:40;13.47;;;11.33;;
9106;SDS011;4589;48.690;8.952;2023-05-14T06:52:06;17.57;;;12.57;;
9106;SDS011;4589;48.690;8.952;2023-05-14T06:54:32;12.17;;;10.53;;
9106;SDS011;4589;48.690;8.952;2023-05-14T06:56:57;13.47;;;12.03;;
9106;SDS011;4589;48.690;8.952;2023-05-14T06:59:23;13.67;;;11.43;;
9106;SDS011;4589;48.690;8.952;2023-05-14T07:01:49;14.87;;;11.23;;
9106;SDS011;4589;48.690;8.952;2023-05-14T07:04:14;12.73;;;10.47;;
9106;SDS011;4589;48.690;8.952;2023-05-14T07:06:40;11.90;;;10.50;;
9106;SDS011;4589;48.690;8.952;2023-05-14T07:09:05;12.03;;;10.70;;
9106;SDS011;4589;48.690;8.952;2023-05-14T07:11:32;12.40;;;10.87;;
9106;SDS011;4589;48.690;8.952;2023-05-14T07:13:57;12.93;;;11.50;;
9106;SDS011;4589;48.690;8.952;2023-05-14T07:16:23;13.60;;;11.13;;
9106;SDS011;4589;48.690;8.952;2023-05-14T07:18:50;12.27;;;10.93;;
9106;SDS011;4589;48.690;8.952;2023-05-14T07:21:16;10.63;;;9.53;;
9106;SDS011;4589;48.690;8.952;2023-05-14T07:23:42;12.80;;;10.30;;
9106;SDS011;4589;48.690;8.952;2023-05-14T07:26:08;12.43;;;10.60;;
9106;SDS011;4589;48.690;8.952;2023-05-14T07:28:33;12.33;;;9.60;;
9106;SDS011;4589;48.690;8.952;2023-05-14T07:30:59;12.93;;;11.23;;
9106;SDS011;4589;48.690;8.952;2023-05-14T07:33:25;11.33;;;9.13;;
9106;SDS011;4589;48.690;8.952;2023-05-14T07:35:51;15.33;;;8.67;;
9106;SDS011;4589;48.690;8.952;2023-05-14T07:38:18;11.07;;;9.87;;
9106;SDS011;4589;48.690;8.952;2023-05-14T07:40:43;10.90;;;9.70;;
9106;SDS011;4589;48.690;8.952;2023-05-14T07:43:09;13.23;;;9.60;;
9106;SDS011;4589;48.690;8.952;2023-05-14T07:45:35;10.33;;;9.30;;
9106;SDS011;4589;48.690;8.952;2023-05-14T07:48:01;10.97;;;9.53;;
9106;SDS011;4589;48.690;8.952;2023-05-14T07:50:27;10.53;;;9.53;;
9106;SDS011;4589;48.690;8.952;2023-05-14T07:52:53;10.03;;;9.03;;
9106;SDS011;4589;48.690;8.952;2023-05-14T07:55:19;11.10;;;9.57;;
9106;SDS011;4589;48.690;8.952;2023-05-14T07:57:45;10.30;;;9.20;;
9106;SDS011;4589;48.690;8.952;2023-05-14T08:00:10;14.87;;;10.00;;
9106;SDS011;4589;48.690;8.952;2023-05-14T08:02:37;12.67;;;9.87;;
9106;SDS011;4589;48.690;8.952;2023-05-14T08:05:02;9.97;;;8.93;;
9106;SDS011;4589;48.690;8.952;2023-05-14T08:07:28;10.93;;;9.63;;
9106;SDS011;4589;48.690;8.952;2023-05-14T08:09:54;9.67;;;8.67;;
9106;SDS011;4589;48.690;8.952;2023-05-14T08:12:20;11.00;;;8.80;;
9106;SDS011;4589;48.690;8.952;2023-05-14T08:14:46;9.33;;;8.43;;
9106;SDS011;4589;48.690;8.952;2023-05-14T08:17:12;10.90;;;9.53;;
9106;SDS011;4589;48.690;8.952;2023-05-14T08:19:38;10.77;;;9.67;;
9106;SDS011;4589;48.690;8.952;2023-05-14T08:22:03;11.57;;;10.37;;
9106;SDS011;4589;48.690;8.952;2023-05-14T08:24:30;11.20;;;10.10;;
9106;SDS011;4589;48.690;8.952;2023-05-14T08:26:55;11.43;;;9.70;;
9106;SDS011;4589;48.690;8.952;2023-05-14T08:29:21;9.50;;;8.53;;
9106;SDS011;4589;48.690;8.952;2023-05-14T08:31:48;10.20;;;9.20;;
9106;SDS011;4589;48.690;8.952;2023-05-14T08:34:14;11.73;;;8.57;;
9106;SDS011;4589;48.690;8.952;2023-05-14T08:36:40;9.37;;;8.47;;
9106;SDS011;4589;48.690;8.952;2023-05-14T08:39:06;9.20;;;8.30;;
9106;SDS011;4589;48.690;8.952;2023-05-14T08:41:32;9.60;;;8.70;;
9106;SDS011;4589;48.690;8.952;2023-05-14T08:44:11;12.23;;;8.97;;
9106;SDS011;4589;48.690;8.952;2023-05-14T08:46:38;16.70;;;9.00;;
9106;SDS011;4589;48.690;8.952;2023-05-14T08:49:14;9.60;;;8.60;;
9106;SDS011;4589;48.690;8.952;2023-05-14T08:51:57;10.73;;;9.07;;
9106;SDS011;4589;48.690;8.952;2023-05-14T08:54:24;8.60;;;7.73;;
9106;SDS011;4589;48.690;8.952;2023-05-14T08:56:51;9.63;;;8.50;;
9106;SDS011;4589;48.690;8.952;2023-05-14T08:59:17;8.17;;;7.47;;
9106;SDS011;4589;48.690;8.952;2023-05-14T09:01:43;10.40;;;8.43;;
9106;SDS011;4589;48.690;8.952;2023-05-14T09:04:12;12.83;;;7.63;;
9106;SDS011;4589;48.690;8.952;2023-05-14T09:06:44;9.57;;;7.70;;
9106;SDS011;4589;48.690;8.952;2023-05-14T09:09:13;9.87;;;8.00;;
9106;SDS011;4589;48.690;8.952;2023-05-14T09:11:44;9.97;;;8.50;;
9106;SDS011;4589;48.690;8.952;2023-05-14T09:14:10;9.87;;;8.87;;
9106;SDS011;4589;48.690;8.952;2023-05-14T09:16:35;9.23;;;8.33;;
9106;SDS011;4589;48.690;8.952;2023-05-14T09:19:03;8.37;;;7.57;;
9106;SDS011;4589;48.690;8.952;2023-05-14T09:21:30;8.80;;;7.67;;
9106;SDS011;4589;48.690;8.952;2023-05-14T09:23:56;9.63;;;8.63;;
9106;SDS011;4589;48.690;8.952;2023-05-14T09:26:23;7.90;;;7.10;;
9106;SDS011;4589;48.690;8.952;2023-05-14T09:28:52;8.53;;;7.73;;
9106;SDS011;4589;48.690;8.952;2023-05-14T09:31:20;11.73;;;7.50;;
9106;SDS011;4589;48.690;8.952;2023-05-14T09:33:49;9.47;;;8.00;;
9106;SDS011;4589;48.690;8.952;2023-05-14T09:36:15;7.67;;;6.10;;
9106;SDS011;4589;48.690;8.952;2023-05-14T09:38:41;7.03;;;6.33;;
9106;SDS011;4589;48.690;8.952;2023-05-14T09:41:07;6.07;;;5.47;;
9106;SDS011;4589;48.690;8.952;2023-05-14T09:43:33;6.77;;;6.23;;
9106;SDS011;4589;48.690;8.952;2023-05-14T09:45:59;8.23;;;7.23;;
9106;SDS011;4589;48.690;8.952;2023-05-14T09:48:24;6.07;;;5.47;;
9106;SDS011;4589;48.690;8.952;2023-05-14T09:50:50;6.90;;;6.30;;
9106;SDS011;4589;48.690;8.952;2023-05-14T09:53:16;6.60;;;6.10;;
9106;SDS011;4589;48.690;8.952;2023-05-14T09:55:42;8.13;;;5.90;;
9106;SDS011;4589;48.690;8.952;2023-05-14T09:58:09;6.47;;;5.87;;
9106;SDS011;4589;48.690;8.952;2023-05-14T10:00:34;9.90;;;7.13;;
9106;SDS011;4589;48.690;8.952;2023-05-14T10:03:03;7.27;;;6.63;;
9106;SDS011;4589;48.690;8.952;2023-05-14T10:05:33;7.40;;;6.70;;
9106;SDS011;4589;48.690;8.952;2023-05-14T10:08:01;7.70;;;7.00;;
9106;SDS011;4589;48.690;8.952;2023-05-14T10:10:32;7.23;;;6.53;;
9106;SDS011;4589;48.690;8.952;2023-05-14T10:13:05;8.93;;;7.53;;
9106;SDS011;4589;48.690;8.952;2023-05-14T10:15:38;11.07;;;7.30;;
9106;SDS011;4589;48.690;8.952;2023-05-14T10:18:11;8.27;;;7.00;;
9106;SDS011;4589;48.690;8.952;2023-05-14T10:20:40;8.77;;;7.20;;
9106;SDS011;4589;48.690;8.952;2023-05-14T10:23:07;7.90;;;7.20;;
9106;SDS011;4589;48.690;8.952;2023-05-14T10:25:33;7.57;;;6.87;;
9106;SDS011;4589;48.690;8.952;2023-05-14T10:28:00;10.23;;;8.77;;
9106;SDS011;4589;48.690;8.952;2023-05-14T10:30:26;7.50;;;6.70;;
9106;SDS011;4589;48.690;8.952;2023-05-14T10:33:04;9.63;;;8.40;;
9106;SDS011;4589;48.690;8.952;2023-05-14T10:35:31;7.77;;;7.07;;
9106;SDS011;4589;48.690;8.952;2023-05-14T10:38:35;8.70;;;7.83;;
9106;SDS011;4589;48.690;8.952;2023-05-14T10:41:05;10.00;;;7.13;;
9106;SDS011;4589;48.690;8.952;2023-05-14T10:43:38;7.20;;;6.33;;
9106;SDS011;4589;48.690;8.952;2023-05-14T10:46:05;6.30;;;5.80;;
9106;SDS011;4589;48.690;8.952;2023-05-14T10:48:32;6.00;;;5.53;;
9106;SDS011;4589;48.690;8.952;2023-05-14T10:50:58;10.67;;;6.50;;
9106;SDS011;4589;48.690;8.952;2023-05-14T10:53:31;6.13;;;5.50;;
9106;SDS011;4589;48.690;8.952;2023-05-14T10:56:01;7.27;;;5.90;;
9106;SDS011;4589;48.690;8.952;2023-05-14T10:58:37;6.00;;;5.50;;
9106;SDS011;4589;48.690;8.952;2023-05-14T11:01:05;6.77;;;6.07;;
9106;SDS011;4589;48.690;8.952;2023-05-14T11:03:32;7.80;;;6.67;;
9106;SDS011;4589;48.690;8.952;2023-05-14T11:06:07;6.87;;;6.00;;
9106;SDS011;4589;48.690;8.952;2023-05-14T11:08:33;5.50;;;5.00;;
9106;SDS011;4589;48.690;8.952;2023-05-14T11:11:00;7.03;;;6.37;;
9106;SDS011;4589;48.690;8.952;2023-05-14T11:13:26;6.40;;;5.80;;
9106;SDS011;4589;48.690;8.952;2023-05-14T11:15:52;6.83;;;5.90;;
9106;SDS011;4589;48.690;8.952;2023-05-14T11:18:24;5.53;;;4.97;;
9106;SDS011;4589;48.690;8.952;2023-05-14T11:20:51;6.80;;;6.00;;
9106;SDS011;4589;48.690;8.952;2023-05-14T11:23:17;5.40;;;4.90;;
9106;SDS011;4589;48.690;8.952;2023-05-14T11:25:44;6.47;;;5.40;;
9106;SDS011;4589;48.690;8.952;2023-05-14T11:28:10;6.67;;;5.73;;
9106;SDS011;4589;48.690;8.952;2023-05-14T11:30:36;5.63;;;5.13;;
9106;SDS011;4589;48.690;8.952;2023-05-14T11:33:02;6.27;;;5.67;;
9106;SDS011;4589;48.690;8.952;2023-05-14T11:35:27;5.33;;;4.83;;
9106;SDS011;4589;48.690;8.952;2023-05-14T11:37:53;5.10;;;4.70;;
9106;SDS011;4589;48.690;8.952;2023-05-14T11:40:18;5.27;;;4.83;;
9106;SDS011;4589;48.690;8.952;2023-05-14T11:42:44;5.40;;;5.00;;
9106;SDS011;4589;48.690;8.952;2023-05-14T11:45:10;5.70;;;5.20;;
9106;SDS011;4589;48.690;8.952;2023-05-14T11:47:37;5.63;;;5.13;;
9106;SDS011;4589;48.690;8.952;2023-05-14T11:50:03;5.43;;;5.00;;
9106;SDS011;4589;48.690;8.952;2023-05-14T11:52:28;7.40;;;5.10;;
9106;SDS011;4589;48.690;8.952;2023-05-14T11:54:55;6.07;;;5.50;;
9106;SDS011;4589;48.690;8.952;2023-05-14T11:57:21;6.93;;;6.40;;
9106;SDS011;4589;48.690;8.952;2023-05-14T11:59:47;7.43;;;6.73;;
9106;SDS011;4589;48.690;8.952;2023-05-14T12:02:18;7.87;;;7.13;;
9106;SDS011;4589;48.690;8.952;2023-05-14T12:04:48;7.90;;;7.10;;
9106;SDS011;4589;48.690;8.952;2023-05-14T12:07:16;6.17;;;5.57;;
9106;SDS011;4589;48.690;8.952;2023-05-14T12:09:42;6.80;;;5.40;;
9106;SDS011;4589;48.690;8.952;2023-05-14T12:12:13;5.73;;;5.23;;
9106;SDS011;4589;48.690;8.952;2023-05-14T12:14:44;6.80;;;6.20;;
9106;SDS011;4589;48.690;8.952;2023-05-14T12:19:43;6.13;;;4.93;;
9106;SDS011;4589;48.690;8.952;2023-05-14T12:22:10;7.23;;;6.50;;
9106;SDS011;4589;48.690;8.952;2023-05-14T12:24:37;7.10;;;6.43;;
9106;SDS011;4589;48.690;8.952;2023-05-14T12:27:04;7.83;;;7.13;;
9106;SDS011;4589;48.690;8.952;2023-05-14T12:29:33;6.87;;;6.17;;
9106;SDS011;4589;48.690;8.952;2023-05-14T12:32:00;7.23;;;6.30;;
9106;SDS011;4589;48.690;8.952;2023-05-14T12:34:28;7.83;;;6.73;;
9106;SDS011;4589;48.690;8.952;2023-05-14T12:36:54;6.90;;;6.20;;
9106;SDS011;4589;48.690;8.952;2023-05-14T12:39:20;7.77;;;6.17;;
9106;SDS011;4589;48.690;8.952;2023-05-14T12:41:45;5.70;;;5.10;;
9106;SDS011;4589;48.690;8.952;2023-05-14T12:44:11;6.70;;;6.10;;
9106;SDS011;4589;48.690;8.952;2023-05-14T12:46:37;5.20;;;4.80;;
9106;SDS011;4589;48.690;8.952;2023-05-14T12:49:03;5.50;;;5.00;;
9106;SDS011;4589;48.690;8.952;2023-05-14T12:51:30;4.53;;;4.13;;
9106;SDS011;4589;48.690;8.952;2023-05-14T12:53:56;4.63;;;3.87;;
9106;SDS011;4589;48.690;8.952;2023-05-14T12:56:21;4.37;;;4.07;;
9106;SDS011;4589;48.690;8.952;2023-05-14T12:58:51;5.80;;;5.20;;
9106;SDS011;4589;48.690;8.952;2023-05-14T13:01:18;5.07;;;4.50;;
9106;SDS011;4589;48.690;8.952;2023-05-14T13:03:43;4.80;;;4.50;;
9106;SDS011;4589;48.690;8.952;2023-05-14T13:06:09;5.97;;;5.30;;
9106;SDS011;4589;48.690;8.952;2023-05-14T13:08:35;5.53;;;4.70;;
9106;SDS011;4589;48.690;8.952;2023-05-14T13:11:01;4.73;;;4.40;;
9106;SDS011;4589;48.690;8.952;2023-05-14T13:13:26;6.90;;;4.80;;
9106;SDS011;4589;48.690;8.952;2023-05-14T13:15:52;8.70;;;5.33;;
9106;SDS011;4589;48.690;8.952;2023-05-14T13:18:18;6.00;;;5.40;;
9106;SDS011;4589;48.690;8.952;2023-05-14T13:20:44;6.33;;;5.50;;
9106;SDS011;4589;48.690;8.952;2023-05-14T13:23:11;5.73;;;5.23;;
9106;SDS011;4589;48.690;8.952;2023-05-14T13:25:37;7.23;;;6.53;;
9106;SDS011;4589;48.690;8.952;2023-05-14T13:28:02;7.00;;;6.30;;
9106;SDS011;4589;48.690;8.952;2023-05-14T13:30:28;8.73;;;6.90;;
9106;SDS011;4589;48.690;8.952;2023-05-14T13:32:55;6.93;;;6.23;;
9106;SDS011;4589;48.690;8.952;2023-05-14T13:35:21;7.83;;;7.10;;
9106;SDS011;4589;48.690;8.952;2023-05-14T13:37:47;7.83;;;7.00;;
9106;SDS011;4589;48.690;8.952;2023-05-14T13:40:13;7.70;;;7.00;;
9106;SDS011;4589;48.690;8.952;2023-05-14T13:42:38;8.80;;;7.40;;
9106;SDS011;4589;48.690;8.952;2023-05-14T13:45:05;7.50;;;6.53;;
9106;SDS011;4589;48.690;8.952;2023-05-14T13:47:31;7.80;;;7.10;;
9106;SDS011;4589;48.690;8.952;2023-05-14T13:49:57;8.00;;;6.70;;
9106;SDS011;4589;48.690;8.952;2023-05-14T13:52:23;6.60;;;6.00;;
9106;SDS011;4589;48.690;8.952;2023-05-14T13:54:49;6.93;;;5.87;;
9106;SDS011;4589;48.690;8.952;2023-05-14T13:57:15;6.00;;;5.50;;
9106;SDS011;4589;48.690;8.952;2023-05-14T13:59:41;7.40;;;6.50;;
9106;SDS011;4589;48.690;8.952;2023-05-14T14:02:07;6.07;;;5.57;;
9106;SDS011;4589;48.690;8.952;2023-05-14T14:04:33;7.40;;;6.07;;
9106;SDS011;4589;48.690;8.952;2023-05-14T14:06:59;9.90;;;5.90;;
9106;SDS011;4589;48.690;8.952;2023-05-14T14:09:24;6.30;;;5.70;;
9106;SDS011;4589;48.690;8.952;2023-05-14T14:11:50;5.87;;;5.17;;
9106;SDS011;4589;48.690;8.952;2023-05-14T14:14:16;8.63;;;5.70;;
9106;SDS011;4589;48.690;8.952;2023-05-14T14:16:42;6.63;;;5.97;;
9106;SDS011;4589;48.690;8.952;2023-05-14T14:19:08;6.30;;;5.70;;
9106;SDS011;4589;48.690;8.952;2023-05-14T14:21:34;6.27;;;5.70;;
9106;SDS011;4589;48.690;8.952;2023-05-14T14:24:03;6.20;;;5.60;;
9106;SDS011;4589;48.690;8.952;2023-05-14T14:26:30;6.10;;;5.60;;
9106;SDS011;4589;48.690;8.952;2023-05-14T14:28:55;7.33;;;6.63;;
9106;SDS011;4589;48.690;8.952;2023-05-14T14:31:21;9.17;;;5.80;;
9106;SDS011;4589;48.690;8.952;2023-05-14T14:33:47;5.07;;;4.57;;
9106;SDS011;4589;48.690;8.952;2023-05-14T14:36:13;5.13;;;4.63;;
9106;SDS011;4589;48.690;8.952;2023-05-14T14:38:39;6.60;;;5.00;;
9106;SDS011;4589;48.690;8.952;2023-05-14T14:41:05;4.73;;;4.13;;
9106;SDS011;4589;48.690;8.952;2023-05-14T14:43:34;4.97;;;4.57;;
9106;SDS011;4589;48.690;8.952;2023-05-14T14:46:00;5.07;;;4.57;;
9106;SDS011;4589;48.690;8.952;2023-05-14T14:48:30;5.70;;;5.10;;
9106;SDS011;4589;48.690;8.952;2023-05-14T14:51:03;5.20;;;4.70;;
9106;SDS011;4589;48.690;8.952;2023-05-14T14:53:30;6.70;;;5.00;;
9106;SDS011;4589;48.690;8.952;2023-05-14T14:55:56;6.20;;;4.47;;
9106;SDS011;4589;48.690;8.952;2023-05-14T14:58:22;5.03;;;4.60;;
9106;SDS011;4589;48.690;8.952;2023-05-14T15:00:52;5.90;;;4.73;;